createdAt,value
2023-02-19T00:01:47.987Z,99890.91
2023-02-19T00:04:34.777Z,99882.50
2023-02-19T00:07:21.545Z,99886.31
2023-02-19T00:10:08.530Z,99860.00
2023-02-19T00:12:55.710Z,99886.03
2023-02-19T00:15:42.134Z,99887.66
2023-02-19T00:18:28.353Z,99874.09
2023-02-19T00:21:16.068Z,99885.22
2023-02-19T00:24:04.781Z,99862.44
2023-02-19T00:26:53.881Z,99897.16
2023-02-19T00:29:40.060Z,99891.72
2023-02-19T00:32:29.660Z,99834.78
2023-02-19T00:35:16.375Z,99882.78
2023-02-19T00:38:04.509Z,99884.69
2023-02-19T00:40:50.957Z,99876.28
2023-02-19T00:43:37.511Z,99848.34
2023-02-19T00:46:25.183Z,99874.66
2023-02-19T00:49:16.905Z,99854.34
2023-02-19T00:52:03.413Z,99870.06
2023-02-19T00:54:52.141Z,99877.09
2023-02-19T00:57:38.231Z,99874.09
2023-02-19T01:00:24.786Z,99876.28
2023-02-19T01:03:11.139Z,99852.72
2023-02-19T01:05:58.016Z,99857.59
2023-02-19T01:08:44.554Z,99871.41
2023-02-19T01:11:31.233Z,99868.16
2023-02-19T01:14:17.427Z,99877.91
2023-02-19T01:17:04.473Z,99867.06
2023-02-19T01:19:50.986Z,99866.81
2023-02-19T01:22:38.154Z,99871.94
2023-02-19T01:25:25.618Z,99828.59
2023-02-19T01:28:12.462Z,99884.94
2023-02-19T01:31:06.384Z,99877.09
2023-02-19T01:34:04.706Z,99870.84
2023-02-19T01:36:51.271Z,99863.56
2023-02-19T01:39:38.968Z,99804.47
2023-02-19T01:42:25.294Z,99852.44
2023-02-19T01:45:27.396Z,99856.78
2023-02-19T01:48:26.848Z,99794.72
2023-02-19T01:51:16.293Z,99853.81
2023-02-19T01:54:12.842Z,99860.31
2023-02-19T01:57:02.834Z,99849.72
2023-02-19T01:59:54.995Z,99844.59
2023-02-19T02:02:43.348Z,99817.47
2023-02-19T02:05:48.066Z,99843.50
2023-02-19T02:08:53.529Z,99819.38
2023-02-19T02:11:43.981Z,99796.34
2023-02-19T02:14:31.973Z,99822.94
2023-02-19T02:17:27.008Z,99809.09
2023-02-19T02:20:29.165Z,99814.78
2023-02-19T02:23:55.130Z,99810.47
2023-02-19T02:27:33.287Z,99802.06
2023-02-19T02:30:33.443Z,99786.88
2023-02-19T02:33:26.792Z,99801.78
2023-02-19T02:36:19.245Z,99793.66
2023-02-19T02:39:08.548Z,99765.22
2023-02-19T02:42:17.648Z,99777.41
2023-02-19T02:45:37.037Z,99780.66
2023-02-19T02:48:45.387Z,99761.69
2023-02-19T02:51:39.453Z,99760.88
2023-02-19T02:54:49.217Z,99703.75
2023-02-19T02:57:37.256Z,99765.22
2023-02-19T03:00:24.936Z,99753.56
2023-02-19T03:03:11.770Z,99760.59
2023-02-19T03:06:02.741Z,99757.34
2023-02-19T03:09:17.688Z,99769.56
2023-02-19T03:12:24.153Z,99756.56
2023-02-19T03:15:31.936Z,99761.69
2023-02-19T03:18:37.948Z,99745.72
2023-02-19T03:21:26.199Z,99758.97
2023-02-19T03:24:32.135Z,99764.13
2023-02-19T03:27:20.214Z,99759.53
2023-02-19T03:30:21.749Z,99753.03
2023-02-19T03:33:16.477Z,99778.22
2023-02-19T03:36:05.953Z,99736.25
2023-02-19T03:39:20.896Z,99760.88
2023-02-19T03:42:35.401Z,99733.53
2023-02-19T03:45:32.458Z,99709.97
2023-02-19T03:48:24.375Z,99743.28
2023-02-19T03:51:28.120Z,99745.44
2023-02-19T03:54:28.707Z,99753.84
2023-02-19T03:57:52.109Z,99747.91
2023-02-19T04:00:42.220Z,99732.72
2023-02-19T04:03:39.121Z,99746.53
2023-02-19T04:06:47.100Z,99737.88
2023-02-19T04:09:38.274Z,99735.44
2023-02-19T04:12:29.564Z,99733.53
2023-02-19T04:15:27.983Z,99738.94
2023-02-19T04:18:44.212Z,99742.75
2023-02-19T04:21:32.687Z,99699.41
2023-02-19T04:24:39.503Z,99755.19
2023-02-19T04:27:26.753Z,99728.13
2023-02-19T04:30:14.064Z,99751.16
2023-02-19T04:33:00.761Z,99740.84
2023-02-19T04:35:47.292Z,99756.28
2023-02-19T04:38:33.890Z,99744.91
2023-02-19T04:41:20.138Z,99711.63
2023-02-19T04:44:09.771Z,99742.72
2023-02-19T04:46:55.922Z,99758.44
2023-02-19T04:49:42.641Z,99763.31
2023-02-19T04:52:29.118Z,99773.34
2023-02-19T04:55:15.759Z,99756.03
2023-02-19T04:58:02.083Z,99771.97
2023-02-19T05:00:52.362Z,99779.31
2023-02-19T05:03:38.662Z,99771.97
2023-02-19T05:06:25.238Z,99766.03
2023-02-19T05:09:11.846Z,99770.91
2023-02-19T05:11:58.249Z,99770.91
2023-02-19T05:14:47.115Z,99760.88
2023-02-19T05:17:37.323Z,99776.06
2023-02-19T05:20:23.342Z,99781.72
2023-02-19T05:23:09.886Z,99768.19
2023-02-19T05:25:55.973Z,99777.94
2023-02-19T05:28:43.169Z,99771.44
2023-02-19T05:31:29.509Z,99714.84
2023-02-19T05:34:16.320Z,99772.25
2023-02-19T05:37:02.427Z,99778.47
2023-02-19T05:39:52.231Z,99760.34
2023-02-19T05:42:38.573Z,99756.56
2023-02-19T05:45:25.231Z,99771.44
2023-02-19T05:48:12.927Z,99774.44
2023-02-19T05:51:04.553Z,99769.00
2023-02-19T05:53:51.419Z,99782.81
2023-02-19T05:56:42.445Z,99775.78
2023-02-19T05:59:29.339Z,99743.53
2023-02-19T06:02:16.237Z,99753.56
2023-02-19T06:05:02.754Z,99761.13
2023-02-19T06:07:50.628Z,99775.75
2023-02-19T06:10:40.269Z,99761.16
2023-02-19T06:13:27.349Z,99739.22
2023-02-19T06:16:13.739Z,99745.72
2023-02-19T06:19:04.302Z,99741.41
2023-02-19T06:21:51.111Z,99774.44
2023-02-19T06:24:37.876Z,99756.28
2023-02-19T06:27:24.307Z,99792.84
2023-02-19T06:30:11.925Z,99793.91
2023-02-19T06:32:58.495Z,99792.28
2023-02-19T06:35:44.856Z,99804.47
2023-02-19T06:38:31.769Z,99792.28
2023-02-19T06:41:18.249Z,99798.50
2023-02-19T06:44:05.088Z,99797.97
2023-02-19T06:46:55.219Z,99809.34
2023-02-19T06:49:41.645Z,99804.72
2023-02-19T06:52:28.193Z,99801.19
2023-02-19T06:55:17.068Z,99764.06
2023-02-19T06:58:04.652Z,99811.47
2023-02-19T07:00:53.961Z,99785.19
2023-02-19T07:03:40.651Z,99788.19
2023-02-19T07:06:27.370Z,99766.53
2023-02-19T07:09:14.008Z,99790.91
2023-02-19T07:12:00.376Z,99825.59
2023-02-19T07:14:49.685Z,99820.16
2023-02-19T07:17:36.427Z,99791.22
2023-02-19T07:20:23.429Z,99816.94
2023-02-19T07:23:10.008Z,99833.47
2023-02-19T07:25:56.892Z,99843.47
2023-02-19T07:28:44.667Z,99819.38
2023-02-19T07:31:31.409Z,99825.59
2023-02-19T07:34:17.738Z,99843.22
2023-02-19T07:37:09.265Z,99831.59
2023-02-19T07:39:55.620Z,99833.75
2023-02-19T07:42:42.478Z,99794.19
2023-02-19T07:45:28.572Z,99821.84
2023-02-19T07:48:15.837Z,99821.84
2023-02-19T07:51:03.974Z,99832.13
2023-02-19T07:53:51.030Z,99825.88
2023-02-19T07:56:37.494Z,99838.63
2023-02-19T07:59:24.342Z,99794.22
2023-02-19T08:02:36.709Z,99842.41
2023-02-19T08:05:23.671Z,99835.38
2023-02-19T08:08:12.537Z,99786.31
2023-02-19T08:11:22.416Z,99790.94
2023-02-19T08:14:22.026Z,99848.34
2023-02-19T08:17:12.224Z,99844.25
2023-02-19T08:19:58.743Z,99860.25
2023-02-19T08:22:45.511Z,99861.00
2023-02-19T08:25:34.549Z,99813.88
2023-02-19T08:28:21.160Z,99848.78
2023-02-19T08:31:08.378Z,99849.31
2023-02-19T08:33:55.222Z,99827.63
2023-02-19T08:36:42.700Z,99880.97
2023-02-19T08:39:29.167Z,99893.97
2023-02-19T08:42:15.547Z,99885.28
2023-02-19T08:45:02.496Z,99873.66
2023-02-19T08:47:48.883Z,99876.91
2023-02-19T08:50:36.316Z,99897.25
2023-02-19T08:53:23.129Z,99899.72
2023-02-19T08:56:12.412Z,99911.38
2023-02-19T08:59:01.349Z,99906.22
2023-02-19T09:01:48.139Z,99915.69
2023-02-19T09:04:34.310Z,99935.22
2023-02-19T09:07:21.175Z,99926.81
2023-02-19T09:10:07.968Z,99934.75
2023-02-19T09:12:54.473Z,99937.75
2023-02-19T09:15:40.752Z,99938.03
2023-02-19T09:18:27.438Z,99939.91
2023-02-19T09:21:14.315Z,99932.31
2023-02-19T09:24:01.133Z,99947.78
2023-02-19T09:26:52.066Z,99945.59
2023-02-19T09:29:39.044Z,99952.34
2023-02-19T09:32:25.751Z,99954.75
2023-02-19T09:35:12.792Z,99965.59
2023-02-19T09:38:01.164Z,99939.88
2023-02-19T09:40:50.876Z,99931.47
2023-02-19T09:43:38.392Z,99972.59
2023-02-19T09:46:31.713Z,99949.03
2023-02-19T09:49:39.167Z,99965.84
2023-02-19T09:52:33.286Z,99981.31
2023-02-19T09:55:25.822Z,99998.69
2023-02-19T09:58:30.151Z,99975.69
2023-02-19T10:01:16.481Z,99998.69
2023-02-19T10:04:04.302Z,99995.94
2023-02-19T10:06:59.016Z,100013.31
2023-02-19T10:09:54.423Z,100017.88
2023-02-19T10:12:51.952Z,100005.94
2023-02-19T10:15:44.519Z,99969.09
2023-02-19T10:18:46.684Z,100004.06
2023-02-19T10:21:33.377Z,100001.59
2023-02-19T10:24:27.923Z,100014.28
2023-02-19T10:27:15.627Z,100025.59
2023-02-19T10:30:02.426Z,100023.44
2023-02-19T10:33:14.085Z,100008.25
2023-02-19T10:36:04.160Z,100039.66
2023-02-19T10:38:50.630Z,100030.47
2023-02-19T10:41:44.065Z,100034.81
2023-02-19T10:44:36.980Z,100053.56
2023-02-19T10:47:24.793Z,100063.91
2023-02-19T10:50:26.971Z,100044.13
2023-02-19T10:53:23.756Z,100032.44
2023-02-19T10:56:27.016Z,100059.06
2023-02-19T10:59:28.351Z,100058.78
2023-02-19T11:02:19.947Z,100058.00
2023-02-19T11:05:09.413Z,100066.66
2023-02-19T11:07:57.355Z,100062.00
2023-02-19T11:10:48.689Z,100060.31
2023-02-19T11:13:38.146Z,100061.09
2023-02-19T11:16:36.913Z,100067.50
2023-02-19T11:19:46.073Z,100077.00
2023-02-19T11:22:50.479Z,100072.03
2023-02-19T11:25:55.387Z,100073.41
2023-02-19T11:28:47.118Z,100061.25
2023-02-19T11:31:36.762Z,100075.03
2023-02-19T11:34:30.511Z,100072.84
2023-02-19T11:37:22.571Z,100074.47
2023-02-19T11:40:12.776Z,100050.59
2023-02-19T11:43:44.283Z,100068.47
2023-02-19T11:46:55.104Z,100071.16
2023-02-19T11:53:32.624Z,100085.88
2023-02-19T11:56:37.338Z,100078.53
2023-02-19T11:59:39.379Z,100072.44
2023-02-19T12:02:42.042Z,100079.22
2023-02-19T12:06:13.753Z,100077.50
2023-02-19T12:09:36.310Z,100080.16
2023-02-19T12:12:26.169Z,100056.66
2023-02-19T12:15:20.386Z,100104.41
2023-02-19T12:18:22.663Z,100099.88
2023-02-19T12:21:27.184Z,100072.06
2023-02-19T12:24:41.913Z,100101.34
2023-02-19T12:27:37.932Z,100113.63
2023-02-19T12:30:53.691Z,100114.19
2023-02-19T12:33:46.732Z,100090.03
2023-02-19T12:37:15.010Z,100121.47
2023-02-19T12:40:30.364Z,100119.06
2023-02-19T12:43:26.273Z,100123.69
2023-02-19T12:46:21.760Z,100128.09
2023-02-19T12:49:14.117Z,100127.88
2023-02-19T12:52:43.293Z,100138.22
2023-02-19T12:55:39.635Z,100148.06
2023-02-19T12:58:38.491Z,100123.94
2023-02-19T13:01:48.684Z,100122.09
2023-02-19T13:04:49.707Z,100139.94
2023-02-19T13:07:58.291Z,100141.78
2023-02-19T13:10:59.556Z,100149.94
2023-02-19T13:14:11.988Z,100150.66
2023-02-19T13:17:11.273Z,100154.22
2023-02-19T13:20:18.339Z,100149.03
2023-02-19T13:23:42.708Z,100135.75
2023-02-19T13:26:42.413Z,100163.94
2023-02-19T13:29:53.286Z,100162.56
2023-02-19T13:32:46.483Z,100165.03
2023-02-19T13:35:42.064Z,100165.88
2023-02-19T13:38:53.015Z,100173.50
2023-02-19T13:41:55.094Z,100148.78
2023-02-19T13:44:57.715Z,100153.38
2023-02-19T13:47:56.968Z,100113.31
2023-02-19T13:50:46.540Z,100161.88
2023-02-19T13:53:47.910Z,100169.25
2023-02-19T13:56:38.417Z,100164.16
2023-02-19T13:59:39.359Z,100176.91
2023-02-19T14:02:35.479Z,100182.13
2023-02-19T14:06:00.124Z,100180.75
2023-02-19T14:08:50.261Z,100162.59
2023-02-19T14:11:44.146Z,100193.84
2023-02-19T14:14:41.183Z,100190.06
2023-02-19T14:17:44.197Z,100192.28
2023-02-19T14:20:45.316Z,100187.41
2023-02-19T14:23:36.935Z,100204.78
2023-02-19T14:26:32.352Z,100203.13
2023-02-19T14:29:20.121Z,100208.84
2023-02-19T14:32:13.614Z,100222.47
2023-02-19T14:35:02.452Z,100215.13
2023-02-19T14:37:51.464Z,100231.72
2023-02-19T14:40:43.770Z,100230.38
2023-02-19T14:43:31.645Z,100236.34
2023-02-19T14:46:21.543Z,100251.31
2023-02-19T14:49:40.252Z,100238.28
2023-02-19T14:52:41.226Z,100250.50
2023-02-19T14:55:35.673Z,100254.28
2023-02-19T14:58:33.015Z,100249.09
2023-02-19T15:01:29.047Z,100257.78
2023-02-19T15:04:24.753Z,100252.34
2023-02-19T15:07:15.974Z,100242.56
2023-02-19T15:10:05.550Z,100254.75
2023-02-19T15:12:53.837Z,100215.63
2023-02-19T15:15:44.634Z,100270.50
2023-02-19T15:18:35.768Z,100273.19
2023-02-19T15:21:26.431Z,100287.28
2023-02-19T15:24:15.060Z,100252.69
2023-02-19T15:27:01.927Z,100305.16
2023-02-19T15:29:53.207Z,100258.59
2023-02-19T15:32:40.195Z,100308.91
2023-02-19T15:35:28.179Z,100323.00
2023-02-19T15:38:15.264Z,100321.09
2023-02-19T15:41:01.784Z,100299.34
2023-02-19T15:44:11.586Z,100314.88
2023-02-19T15:47:00.420Z,100334.38
2023-02-19T15:49:57.319Z,100343.06
2023-02-19T15:52:52.748Z,100342.19
2023-02-19T15:55:41.396Z,100338.94
2023-02-19T15:58:36.440Z,100339.72
2023-02-19T16:01:26.048Z,100330.41
2023-02-19T16:04:17.646Z,100343.72
2023-02-19T16:07:04.020Z,100338.22
2023-02-19T16:10:25.057Z,100313.41
2023-02-19T16:13:12.070Z,100361.44
2023-02-19T16:16:24.473Z,100357.84
2023-02-19T16:19:11.602Z,100367.78
2023-02-19T16:21:58.791Z,100336.69
2023-02-19T16:24:47.966Z,100373.63
2023-02-19T16:27:40.374Z,100369.22
2023-02-19T16:30:34.203Z,100382.50
2023-02-19T16:33:48.381Z,100393.56
2023-02-19T16:36:41.377Z,100391.03
2023-02-19T16:39:28.266Z,100382.81
2023-02-19T16:42:15.180Z,100375.28
2023-02-19T16:45:02.126Z,100415.25
2023-02-19T16:47:51.150Z,100417.09
2023-02-19T16:50:43.554Z,100375.69
2023-02-19T16:53:30.681Z,100451.59
2023-02-19T16:56:21.306Z,100451.16
2023-02-19T16:59:08.165Z,100451.66
2023-02-19T17:01:54.930Z,100418.03
2023-02-19T17:04:41.284Z,100466.25
2023-02-19T17:07:27.901Z,100408.94
2023-02-19T17:10:17.882Z,100442.16
2023-02-19T17:13:04.615Z,100463.41
2023-02-19T17:15:51.570Z,100454.31
2023-02-19T17:18:38.080Z,100446.88
2023-02-19T17:21:30.924Z,100418.72
2023-02-19T17:24:17.571Z,100455.97
2023-02-19T17:27:04.189Z,100476.38
2023-02-19T17:29:50.825Z,100477.69
2023-02-19T17:32:37.393Z,100463.28
2023-02-19T17:35:26.962Z,100447.06
2023-02-19T17:38:14.258Z,100461.00
2023-02-19T17:41:00.983Z,100483.28
2023-02-19T17:43:48.320Z,100476.81
2023-02-19T17:46:35.920Z,100431.25
2023-02-19T17:49:24.360Z,100491.06
2023-02-19T17:52:10.924Z,100498.28
2023-02-19T17:54:57.419Z,100478.28
2023-02-19T17:57:45.075Z,100504.66
2023-02-19T18:00:32.381Z,100486.22
2023-02-19T18:03:19.410Z,100522.75
2023-02-19T18:06:06.925Z,100530.31
2023-02-19T18:08:53.794Z,100534.66
2023-02-19T18:11:46.476Z,100539.22
2023-02-19T18:14:35.712Z,100545.94
2023-02-19T18:17:25.949Z,100554.28
2023-02-19T18:20:17.584Z,100559.38
2023-02-19T18:23:07.947Z,100557.88
2023-02-19T18:25:54.004Z,100565.66
2023-02-19T18:28:41.131Z,100558.66
2023-02-19T18:31:27.949Z,100563.00
2023-02-19T18:34:20.677Z,100533.31
2023-02-19T18:37:07.133Z,100573.28
2023-02-19T18:39:53.943Z,100559.50
2023-02-19T18:42:41.065Z,100563.25
2023-02-19T18:45:29.819Z,100538.50
2023-02-19T18:48:16.129Z,100564.16
2023-02-19T18:51:02.542Z,100568.13
2023-02-19T18:53:49.225Z,100570.25
2023-02-19T18:56:43.658Z,100577.06
2023-02-19T18:59:29.832Z,100569.91
2023-02-19T19:02:16.928Z,100573.00
2023-02-19T19:05:03.712Z,100572.31
2023-02-19T19:08:01.983Z,100574.00
2023-02-19T19:10:48.341Z,100570.00
2023-02-19T19:13:35.176Z,100560.97
2023-02-19T19:16:25.966Z,100565.94
2023-02-19T19:19:13.345Z,100565.59
2023-02-19T19:21:59.771Z,100568.63
2023-02-19T19:24:46.479Z,100530.44
2023-02-19T19:27:35.986Z,100531.84
2023-02-19T19:30:25.744Z,100548.84
2023-02-19T19:33:17.851Z,100557.53
2023-02-19T19:36:11.102Z,100575.97
2023-02-19T19:38:57.345Z,100562.13
2023-02-19T19:41:43.961Z,100572.81
2023-02-19T19:44:30.670Z,100521.91
2023-02-19T19:47:18.222Z,100579.88
2023-02-19T19:50:06.681Z,100559.00
2023-02-19T19:52:53.451Z,100585.84
2023-02-19T19:55:39.918Z,100571.41
2023-02-19T19:58:30.059Z,100572.81
2023-02-19T20:01:21.106Z,100545.50
2023-02-19T20:04:10.308Z,100575.13
2023-02-19T20:06:58.645Z,100577.22
2023-02-19T20:09:50.931Z,100540.63
2023-02-19T20:12:39.638Z,100562.44
2023-02-19T20:15:26.770Z,100591.69
2023-02-19T20:18:18.622Z,100587.81
2023-02-19T20:21:07.631Z,100578.78
2023-02-19T20:23:53.980Z,100591.56
2023-02-19T20:26:40.701Z,100555.94
2023-02-19T20:29:33.159Z,100570.81
2023-02-19T20:32:19.818Z,100599.47
2023-02-19T20:35:08.205Z,100588.19
2023-02-19T20:37:55.705Z,100573.88
2023-02-19T20:40:42.193Z,100562.88
2023-02-19T20:43:28.873Z,100571.56
2023-02-19T20:46:15.488Z,100582.69
2023-02-19T20:49:02.178Z,100611.22
2023-02-19T20:52:07.551Z,100605.91
2023-02-19T20:54:55.932Z,100614.59
2023-02-19T20:57:44.856Z,100624.34
2023-02-19T21:00:31.229Z,100608.38
2023-02-19T21:03:17.599Z,100621.06
2023-02-19T21:06:07.082Z,100585.53
2023-02-19T21:08:53.169Z,100584.31
2023-02-19T21:11:42.852Z,100630.44
2023-02-19T21:14:29.202Z,100612.25
2023-02-19T21:17:16.129Z,100628.69
2023-02-19T21:20:05.670Z,100601.81
2023-02-19T21:22:52.665Z,100626.94
2023-02-19T21:25:39.412Z,100624.47
2023-02-19T21:28:25.970Z,100647.22
2023-02-19T21:31:12.448Z,100651.22
2023-02-19T21:34:04.233Z,100657.34
2023-02-19T21:36:51.252Z,100637.94
2023-02-19T21:39:39.042Z,100619.56
2023-02-19T21:42:25.820Z,100648.53
2023-02-19T21:45:12.485Z,100630.47
2023-02-19T21:47:59.277Z,100611.31
2023-02-19T21:50:45.903Z,100645.47
2023-02-19T21:53:33.822Z,100656.50
2023-02-19T21:56:31.576Z,100650.97
2023-02-19T21:59:18.836Z,100645.25
2023-02-19T22:02:05.144Z,100655.06
2023-02-19T22:04:55.438Z,100661.31
2023-02-19T22:07:42.247Z,100598.53
2023-02-19T22:10:29.949Z,100660.03
2023-02-19T22:13:18.839Z,100658.97
2023-02-19T22:16:05.552Z,100635.38
2023-02-19T22:18:57.806Z,100656.50
2023-02-19T22:21:46.819Z,100593.25
2023-02-19T22:24:33.596Z,100646.28
2023-02-19T22:27:21.813Z,100643.69
2023-02-19T22:31:02.001Z,100636.88
2023-02-19T22:33:48.676Z,100576.94
2023-02-19T22:36:39.104Z,100639.22
2023-02-19T22:39:28.029Z,100626.09
2023-02-19T22:42:21.580Z,100628.22
2023-02-19T22:45:29.711Z,100629.38
2023-02-19T22:48:29.680Z,100630.44
2023-02-19T22:51:25.214Z,100631.50
2023-02-19T22:54:17.079Z,100636.31
2023-02-19T22:57:10.698Z,100638.53
2023-02-19T23:00:00.821Z,100637.00
2023-02-19T23:02:48.861Z,100612.50
2023-02-19T23:05:35.564Z,100635.72
2023-02-19T23:08:21.827Z,100642.19
2023-02-19T23:11:09.449Z,100607.34
2023-02-19T23:13:55.956Z,100601.56
2023-02-19T23:16:43.144Z,100625.28
2023-02-19T23:19:29.726Z,100652.19
2023-02-19T23:22:16.551Z,100616.47
2023-02-19T23:25:06.861Z,100643.59
2023-02-19T23:27:53.717Z,100635.50
2023-02-19T23:30:39.962Z,100614.38
2023-02-19T23:33:26.923Z,100630.56
2023-02-19T23:36:13.976Z,100619.19
2023-02-19T23:39:03.870Z,100623.16
2023-02-19T23:41:54.528Z,100631.16
2023-02-19T23:44:41.227Z,100615.44
2023-02-19T23:47:30.652Z,100601.94
2023-02-19T23:50:17.517Z,100601.72
2023-02-19T23:53:04.252Z,100607.13
2023-02-19T23:55:51.795Z,100581.06
2023-02-19T23:58:38.206Z,100611.22
